TimePST,TemperatureF,Dew PointF,Humidity,Sea Level PressureIn,VisibilityMPH,Wind Direction,Wind SpeedMPH,Gust SpeedMPH,PrecipitationIn,Events,Conditions,WindDirDegrees,DateUTC
12:55 AM,39.9,36.0,86,29.63,10.0,ESE,3.5,-,N/A,,Overcast,110,2012-11-21 08:55:00
1:55 AM,37.0,34.0,89,29.60,9.0,South,3.5,-,N/A,,Clear,190,2012-11-21 09:55:00
2:55 AM,37.0,34.0,89,29.60,6.0,North,3.5,-,N/A,,Mostly Cloudy,10,2012-11-21 10:55:00
4:55 AM,37.9,35.1,89,29.62,10.0,WSW,4.6,-,N/A,,Overcast,240,2012-11-21 12:55:00
5:55 AM,37.0,34.0,89,29.63,6.0,WNW,8.1,-,0.00,,Partly Cloudy,300,2012-11-21 13:55:00
6:04 AM,37.4,33.8,87,29.61,1.8,NW,10.4,18.4,N/A,,Mostly Cloudy,310,2012-11-21 14:04:00
6:11 AM,37.4,35.6,93,29.61,3.0,NE,3.5,-,N/A,,Mostly Cloudy,40,2012-11-21 14:11:00
6:55 AM,39.0,34.0,82,29.63,10.0,Calm,Calm,-,N/A,,Clear,0,2012-11-21 14:55:00
7:55 AM,37.0,34.0,89,29.67,10.0,NW,3.5,-,N/A,,Partly Cloudy,320,2012-11-21 15:55:00
8:30 AM,37.4,33.8,87,29.68,0.8,Calm,Calm,-,N/A,,Partly Cloudy,0,2012-11-21 16:30:00
8:37 AM,39.2,35.6,87,29.68,0.5,West,4.6,-,N/A,Fog,Fog,260,2012-11-21 16:37:00
8:41 AM,39.2,35.6,87,29.68,1.8,Calm,Calm,-,N/A,,Haze,0,2012-11-21 16:41:00
8:48 AM,42.8,33.8,70,29.68,10.0,Calm,Calm,-,N/A,,Partly Cloudy,0,2012-11-21 16:48:00
8:55 AM,43.0,35.1,74,29.71,10.0,Calm,Calm,-,N/A,,Partly Cloudy,0,2012-11-21 16:55:00
9:55 AM,48.0,28.9,48,29.74,10.0,NW,11.5,-,N/A,,Clear,310,2012-11-21 17:55:00
10:55 AM,50.0,25.0,38,29.78,10.0,West,18.4,24.2,N/A,,Clear,270,2012-11-21 18:55:00
11:55 AM,50.0,25.0,38,29.80,10.0,West,21.9,29.9,N/A,,Clear,280,2012-11-21 19:55:00
12:55 PM,50.0,27.0,41,29.82,10.0,WNW,17.3,24.2,N/A,,Clear,300,2012-11-21 20:55:00
1:55 PM,48.0,28.0,46,29.86,10.0,West,13.8,-,N/A,,Partly Cloudy,270,2012-11-21 21:55:00
2:55 PM,46.9,26.1,44,29.90,10.0,WSW,11.5,21.9,N/A,,Partly Cloudy,250,2012-11-21 22:55:00
3:55 PM,46.0,23.0,40,29.94,10.0,WSW,21.9,29.9,N/A,,Partly Cloudy,250,2012-11-21 23:55:00
4:55 PM,43.0,27.0,53,29.97,10.0,NNW,5.8,-,N/A,,Partly Cloudy,330,2012-11-22 00:55:00
5:55 PM,41.0,28.0,60,30.00,10.0,NNW,5.8,-,N/A,,Clear,340,2012-11-22 01:55:00
6:55 PM,36.0,28.9,76,30.03,10.0,WNW,5.8,-,N/A,,Clear,290,2012-11-22 02:55:00
8:55 PM,39.9,30.9,70,30.10,10.0,NW,19.6,-,N/A,,Clear,310,2012-11-22 04:55:00
9:55 PM,39.0,30.9,73,30.13,10.0,NW,16.1,-,N/A,,Clear,310,2012-11-22 05:55:00
10:55 PM,37.9,30.9,76,30.18,10.0,ENE,8.1,-,N/A,,Mostly Cloudy,60,2012-11-22 06:55:00
11:55 PM,39.0,30.9,73,30.21,10.0,Calm,Calm,-,N/A,,Scattered Clouds,0,2012-11-22 07:55:00